sensor_id;sensor_type;location;lat;lon;timestamp;P1;durP1;ratioP1;P2;durP2;ratioP2
25207;SDS011;13153;52.316;21.166;2023-01-15T00:00:19;29.13;;;14.23;;
25207;SDS011;13153;52.316;21.166;2023-01-15T00:02:45;25.60;;;13.55;;
25207;SDS011;13153;52.316;21.166;2023-01-15T00:05:11;29.33;;;14.65;;
25207;SDS011;13153;52.316;21.166;2023-01-15T00:07:37;29.95;;;14.57;;
25207;SDS011;13153;52.316;21.166;2023-01-15T00:10:03;30.92;;;14.18;;
25207;SDS011;13153;52.316;21.166;2023-01-15T00:12:29;28.95;;;13.63;;
25207;SDS011;13153;52.316;21.166;2023-01-15T00:14:55;25.95;;;13.57;;
25207;SDS011;13153;52.316;21.166;2023-01-15T00:17:22;26.70;;;13.40;;
25207;SDS011;13153;52.316;21.166;2023-01-15T00:19:48;27.00;;;13.68;;
25207;SDS011;13153;52.316;21.166;2023-01-15T00:22:14;29.88;;;13.45;;
25207;SDS011;13153;52.316;21.166;2023-01-15T00:24:40;25.98;;;13.02;;
25207;SDS011;13153;52.316;21.166;2023-01-15T00:27:24;27.50;;;14.00;;
25207;SDS011;13153;52.316;21.166;2023-01-15T00:30:05;28.80;;;14.02;;
25207;SDS011;13153;52.316;21.166;2023-01-15T00:32:34;31.52;;;14.00;;
25207;SDS011;13153;52.316;21.166;2023-01-15T00:35:00;27.63;;;13.90;;
25207;SDS011;13153;52.316;21.166;2023-01-15T00:37:26;27.42;;;13.82;;
25207;SDS011;13153;52.316;21.166;2023-01-15T00:39:52;23.30;;;12.93;;
25207;SDS011;13153;52.316;21.166;2023-01-15T00:42:18;24.77;;;13.02;;
25207;SDS011;13153;52.316;21.166;2023-01-15T00:44:44;24.45;;;12.50;;
25207;SDS011;13153;52.316;21.166;2023-01-15T00:47:10;25.75;;;13.10;;
25207;SDS011;13153;52.316;21.166;2023-01-15T00:49:39;26.00;;;13.57;;
25207;SDS011;13153;52.316;21.166;2023-01-15T00:52:06;22.70;;;12.02;;
25207;SDS011;13153;52.316;21.166;2023-01-15T00:54:32;22.38;;;12.23;;
25207;SDS011;13153;52.316;21.166;2023-01-15T00:56:58;24.33;;;11.70;;
25207;SDS011;13153;52.316;21.166;2023-01-15T00:59:24;24.08;;;11.70;;
25207;SDS011;13153;52.316;21.166;2023-01-15T01:01:49;22.88;;;12.20;;
25207;SDS011;13153;52.316;21.166;2023-01-15T01:04:15;21.00;;;11.60;;
25207;SDS011;13153;52.316;21.166;2023-01-15T01:06:41;21.67;;;11.60;;
25207;SDS011;13153;52.316;21.166;2023-01-15T01:09:16;21.83;;;11.73;;
25207;SDS011;13153;52.316;21.166;2023-01-15T01:11:42;21.55;;;11.18;;
25207;SDS011;13153;52.316;21.166;2023-01-15T01:14:08;21.13;;;10.93;;
25207;SDS011;13153;52.316;21.166;2023-01-15T01:16:37;22.55;;;11.38;;
25207;SDS011;13153;52.316;21.166;2023-01-15T01:19:06;19.00;;;10.73;;
25207;SDS011;13153;52.316;21.166;2023-01-15T01:21:44;19.02;;;10.57;;
25207;SDS011;13153;52.316;21.166;2023-01-15T01:24:13;19.75;;;10.90;;
25207;SDS011;13153;52.316;21.166;2023-01-15T01:26:42;19.83;;;10.57;;
25207;SDS011;13153;52.316;21.166;2023-01-15T01:29:12;20.15;;;10.88;;
25207;SDS011;13153;52.316;21.166;2023-01-15T01:31:41;19.98;;;10.48;;
25207;SDS011;13153;52.316;21.166;2023-01-15T01:34:07;18.13;;;10.20;;
25207;SDS011;13153;52.316;21.166;2023-01-15T01:36:35;20.95;;;10.63;;
25207;SDS011;13153;52.316;21.166;2023-01-15T01:39:04;21.48;;;10.90;;
25207;SDS011;13153;52.316;21.166;2023-01-15T01:41:32;18.60;;;10.15;;
25207;SDS011;13153;52.316;21.166;2023-01-15T01:46:32;19.38;;;10.50;;
25207;SDS011;13153;52.316;21.166;2023-01-15T01:49:10;19.88;;;10.50;;
25207;SDS011;13153;52.316;21.166;2023-01-15T01:51:39;20.85;;;10.73;;
25207;SDS011;13153;52.316;21.166;2023-01-15T01:54:15;19.15;;;9.65;;
25207;SDS011;13153;52.316;21.166;2023-01-15T01:56:45;19.75;;;10.20;;
25207;SDS011;13153;52.316;21.166;2023-01-15T01:59:14;17.33;;;10.00;;
25207;SDS011;13153;52.316;21.166;2023-01-15T02:01:44;19.15;;;10.20;;
25207;SDS011;13153;52.316;21.166;2023-01-15T02:04:12;17.77;;;9.38;;
25207;SDS011;13153;52.316;21.166;2023-01-15T02:06:38;17.85;;;9.73;;
25207;SDS011;13153;52.316;21.166;2023-01-15T02:09:06;18.95;;;9.43;;
25207;SDS011;13153;52.316;21.166;2023-01-15T02:11:33;16.95;;;9.10;;
25207;SDS011;13153;52.316;21.166;2023-01-15T02:19:55;19.48;;;9.77;;
25207;SDS011;13153;52.316;21.166;2023-01-15T02:25:45;18.23;;;9.88;;
25207;SDS011;13153;52.316;21.166;2023-01-15T02:28:24;19.05;;;10.80;;
25207;SDS011;13153;52.316;21.166;2023-01-15T02:31:18;18.88;;;10.00;;
25207;SDS011;13153;52.316;21.166;2023-01-15T02:34:02;20.65;;;9.98;;
25207;SDS011;13153;52.316;21.166;2023-01-15T02:36:43;22.05;;;10.35;;
25207;SDS011;13153;52.316;21.166;2023-01-15T02:39:15;20.33;;;10.57;;
25207;SDS011;13153;52.316;21.166;2023-01-15T02:41:46;21.65;;;11.40;;
25207;SDS011;13153;52.316;21.166;2023-01-15T02:44:16;21.33;;;10.75;;
25207;SDS011;13153;52.316;21.166;2023-01-15T02:46:47;21.02;;;10.45;;
25207;SDS011;13153;52.316;21.166;2023-01-15T02:49:16;22.38;;;11.45;;
25207;SDS011;13153;52.316;21.166;2023-01-15T02:51:50;24.67;;;11.18;;
25207;SDS011;13153;52.316;21.166;2023-01-15T02:54:27;20.95;;;11.45;;
25207;SDS011;13153;52.316;21.166;2023-01-15T02:57:08;22.73;;;12.40;;
25207;SDS011;13153;52.316;21.166;2023-01-15T02:59:38;22.33;;;10.95;;
25207;SDS011;13153;52.316;21.166;2023-01-15T03:02:10;23.05;;;11.43;;
25207;SDS011;13153;52.316;21.166;2023-01-15T03:05:05;21.80;;;11.60;;
25207;SDS011;13153;52.316;21.166;2023-01-15T03:07:56;21.98;;;11.85;;
25207;SDS011;13153;52.316;21.166;2023-01-15T03:10:32;22.55;;;12.07;;
25207;SDS011;13153;52.316;21.166;2023-01-15T03:13:14;22.60;;;11.18;;
25207;SDS011;13153;52.316;21.166;2023-01-15T03:27:17;19.95;;;10.77;;
25207;SDS011;13153;52.316;21.166;2023-01-15T03:29:44;21.83;;;10.88;;
25207;SDS011;13153;52.316;21.166;2023-01-15T03:32:14;23.42;;;11.48;;
25207;SDS011;13153;52.316;21.166;2023-01-15T03:34:44;22.80;;;11.90;;
25207;SDS011;13153;52.316;21.166;2023-01-15T03:37:15;20.08;;;10.73;;
25207;SDS011;13153;52.316;21.166;2023-01-15T03:39:43;18.13;;;9.95;;
25207;SDS011;13153;52.316;21.166;2023-01-15T03:42:13;19.02;;;9.45;;
25207;SDS011;13153;52.316;21.166;2023-01-15T03:50:54;17.83;;;9.68;;
25207;SDS011;13153;52.316;21.166;2023-01-15T03:54:09;20.13;;;10.20;;
25207;SDS011;13153;52.316;21.166;2023-01-15T03:56:47;20.33;;;10.02;;
25207;SDS011;13153;52.316;21.166;2023-01-15T03:59:25;18.65;;;9.82;;
25207;SDS011;13153;52.316;21.166;2023-01-15T04:02:00;15.40;;;8.65;;
25207;SDS011;13153;52.316;21.166;2023-01-15T04:04:30;16.40;;;8.65;;
25207;SDS011;13153;52.316;21.166;2023-01-15T04:06:58;17.95;;;8.55;;
25207;SDS011;13153;52.316;21.166;2023-01-15T04:09:26;17.30;;;9.73;;
25207;SDS011;13153;52.316;21.166;2023-01-15T04:11:52;15.98;;;9.07;;
25207;SDS011;13153;52.316;21.166;2023-01-15T04:14:24;16.52;;;8.80;;
25207;SDS011;13153;52.316;21.166;2023-01-15T04:16:53;14.85;;;8.13;;
25207;SDS011;13153;52.316;21.166;2023-01-15T04:19:19;15.07;;;8.32;;
25207;SDS011;13153;52.316;21.166;2023-01-15T04:22:08;14.30;;;8.00;;
25207;SDS011;13153;52.316;21.166;2023-01-15T04:24:35;16.10;;;8.75;;
25207;SDS011;13153;52.316;21.166;2023-01-15T04:27:02;15.18;;;8.45;;
25207;SDS011;13153;52.316;21.166;2023-01-15T04:29:28;15.52;;;8.02;;
25207;SDS011;13153;52.316;21.166;2023-01-15T04:31:53;15.75;;;7.97;;
25207;SDS011;13153;52.316;21.166;2023-01-15T04:34:23;14.13;;;7.93;;
25207;SDS011;13153;52.316;21.166;2023-01-15T04:36:50;13.50;;;7.63;;
25207;SDS011;13153;52.316;21.166;2023-01-15T04:39:16;13.18;;;7.32;;
25207;SDS011;13153;52.316;21.166;2023-01-15T04:41:42;14.50;;;8.00;;
25207;SDS011;13153;52.316;21.166;2023-01-15T04:44:26;14.13;;;7.75;;
25207;SDS011;13153;52.316;21.166;2023-01-15T04:46:53;15.32;;;7.57;;
25207;SDS011;13153;52.316;21.166;2023-01-15T04:49:21;15.27;;;7.95;;
25207;SDS011;13153;52.316;21.166;2023-01-15T04:51:47;14.43;;;7.88;;
25207;SDS011;13153;52.316;21.166;2023-01-15T04:54:13;13.05;;;6.43;;
25207;SDS011;13153;52.316;21.166;2023-01-15T04:56:43;16.23;;;7.55;;
25207;SDS011;13153;52.316;21.166;2023-01-15T04:59:12;14.18;;;6.97;;
25207;SDS011;13153;52.316;21.166;2023-01-15T05:01:39;15.10;;;7.03;;
25207;SDS011;13153;52.316;21.166;2023-01-15T05:04:05;10.52;;;6.35;;
25207;SDS011;13153;52.316;21.166;2023-01-15T05:06:32;11.88;;;6.22;;
25207;SDS011;13153;52.316;21.166;2023-01-15T05:08:59;11.45;;;6.68;;
25207;SDS011;13153;52.316;21.166;2023-01-15T05:11:26;12.95;;;6.93;;
25207;SDS011;13153;52.316;21.166;2023-01-15T05:13:53;16.02;;;8.15;;
25207;SDS011;13153;52.316;21.166;2023-01-15T05:16:23;13.07;;;7.10;;
25207;SDS011;13153;52.316;21.166;2023-01-15T05:18:52;10.57;;;6.72;;
25207;SDS011;13153;52.316;21.166;2023-01-15T05:21:23;12.38;;;6.30;;
25207;SDS011;13153;52.316;21.166;2023-01-15T05:23:53;10.80;;;6.28;;
25207;SDS011;13153;52.316;21.166;2023-01-15T05:26:21;13.18;;;6.97;;
25207;SDS011;13153;52.316;21.166;2023-01-15T05:28:48;14.07;;;6.30;;
25207;SDS011;13153;52.316;21.166;2023-01-15T05:31:21;12.55;;;6.43;;
25207;SDS011;13153;52.316;21.166;2023-01-15T05:33:47;12.63;;;5.90;;
25207;SDS011;13153;52.316;21.166;2023-01-15T05:36:16;9.52;;;5.60;;
25207;SDS011;13153;52.316;21.166;2023-01-15T05:38:45;13.60;;;6.15;;
25207;SDS011;13153;52.316;21.166;2023-01-15T05:41:15;11.02;;;5.80;;
25207;SDS011;13153;52.316;21.166;2023-01-15T05:44:04;9.93;;;5.60;;
25207;SDS011;13153;52.316;21.166;2023-01-15T05:46:34;10.68;;;5.72;;
25207;SDS011;13153;52.316;21.166;2023-01-15T05:49:03;8.95;;;5.20;;
25207;SDS011;13153;52.316;21.166;2023-01-15T05:51:33;11.82;;;5.80;;
25207;SDS011;13153;52.316;21.166;2023-01-15T05:54:00;10.88;;;5.80;;
25207;SDS011;13153;52.316;21.166;2023-01-15T05:56:28;10.40;;;4.97;;
25207;SDS011;13153;52.316;21.166;2023-01-15T05:58:54;9.38;;;5.32;;
25207;SDS011;13153;52.316;21.166;2023-01-15T06:01:21;9.32;;;5.25;;
25207;SDS011;13153;52.316;21.166;2023-01-15T06:03:47;7.63;;;5.00;;
25207;SDS011;13153;52.316;21.166;2023-01-15T06:06:13;9.90;;;5.43;;
25207;SDS011;13153;52.316;21.166;2023-01-15T06:08:42;9.18;;;5.10;;
25207;SDS011;13153;52.316;21.166;2023-01-15T06:11:09;11.02;;;5.80;;
25207;SDS011;13153;52.316;21.166;2023-01-15T06:13:35;8.35;;;5.03;;
25207;SDS011;13153;52.316;21.166;2023-01-15T06:16:03;7.97;;;4.55;;
25207;SDS011;13153;52.316;21.166;2023-01-15T06:18:30;9.75;;;5.10;;
25207;SDS011;13153;52.316;21.166;2023-01-15T06:21:01;9.07;;;5.15;;
25207;SDS011;13153;52.316;21.166;2023-01-15T06:23:29;8.35;;;5.30;;
25207;SDS011;13153;52.316;21.166;2023-01-15T06:25:59;11.02;;;5.20;;
25207;SDS011;13153;52.316;21.166;2023-01-15T06:28:26;8.23;;;4.60;;
25207;SDS011;13153;52.316;21.166;2023-01-15T06:30:52;10.10;;;4.78;;
25207;SDS011;13153;52.316;21.166;2023-01-15T06:33:18;8.73;;;4.57;;
25207;SDS011;13153;52.316;21.166;2023-01-15T06:35:43;8.02;;;5.25;;
25207;SDS011;13153;52.316;21.166;2023-01-15T06:38:09;8.02;;;4.30;;
25207;SDS011;13153;52.316;21.166;2023-01-15T06:40:35;9.95;;;4.65;;
25207;SDS011;13153;52.316;21.166;2023-01-15T06:43:01;6.13;;;4.07;;
25207;SDS011;13153;52.316;21.166;2023-01-15T06:45:45;7.97;;;4.03;;
25207;SDS011;13153;52.316;21.166;2023-01-15T06:48:30;7.68;;;4.50;;
25207;SDS011;13153;52.316;21.166;2023-01-15T06:50:57;6.75;;;4.25;;
25207;SDS011;13153;52.316;21.166;2023-01-15T06:53:23;7.05;;;4.00;;
25207;SDS011;13153;52.316;21.166;2023-01-15T06:55:49;6.95;;;4.05;;
25207;SDS011;13153;52.316;21.166;2023-01-15T06:58:15;7.35;;;4.20;;
25207;SDS011;13153;52.316;21.166;2023-01-15T07:00:41;6.85;;;3.85;;
25207;SDS011;13153;52.316;21.166;2023-01-15T07:03:09;4.97;;;3.72;;
25207;SDS011;13153;52.316;21.166;2023-01-15T07:05:38;7.47;;;3.95;;
25207;SDS011;13153;52.316;21.166;2023-01-15T07:08:05;7.57;;;3.92;;
25207;SDS011;13153;52.316;21.166;2023-01-15T07:10:32;6.55;;;4.13;;
25207;SDS011;13153;52.316;21.166;2023-01-15T07:12:59;6.45;;;4.18;;
25207;SDS011;13153;52.316;21.166;2023-01-15T07:15:25;7.20;;;4.00;;
25207;SDS011;13153;52.316;21.166;2023-01-15T07:17:55;5.85;;;4.00;;
25207;SDS011;13153;52.316;21.166;2023-01-15T07:20:22;8.77;;;4.40;;
25207;SDS011;13153;52.316;21.166;2023-01-15T07:22:48;7.82;;;4.68;;
25207;SDS011;13153;52.316;21.166;2023-01-15T07:25:17;6.85;;;4.18;;
25207;SDS011;13153;52.316;21.166;2023-01-15T07:27:46;7.65;;;4.18;;
25207;SDS011;13153;52.316;21.166;2023-01-15T07:30:13;9.90;;;4.47;;
25207;SDS011;13153;52.316;21.166;2023-01-15T07:32:40;9.80;;;4.38;;
25207;SDS011;13153;52.316;21.166;2023-01-15T07:35:06;7.38;;;4.15;;
25207;SDS011;13153;52.316;21.166;2023-01-15T07:37:34;6.05;;;4.13;;
25207;SDS011;13153;52.316;21.166;2023-01-15T07:39:59;6.47;;;3.92;;
25207;SDS011;13153;52.316;21.166;2023-01-15T07:42:25;7.15;;;4.15;;
25207;SDS011;13153;52.316;21.166;2023-01-15T07:45:09;5.77;;;3.57;;
25207;SDS011;13153;52.316;21.166;2023-01-15T07:47:53;8.27;;;4.50;;
25207;SDS011;13153;52.316;21.166;2023-01-15T07:50:38;7.47;;;4.50;;
25207;SDS011;13153;52.316;21.166;2023-01-15T07:53:04;9.80;;;4.60;;
25207;SDS011;13153;52.316;21.166;2023-01-15T07:55:29;8.68;;;4.18;;
25207;SDS011;13153;52.316;21.166;2023-01-15T07:57:55;6.80;;;4.10;;
25207;SDS011;13153;52.316;21.166;2023-01-15T08:00:22;6.03;;;3.80;;
25207;SDS011;13153;52.316;21.166;2023-01-15T08:02:49;9.73;;;4.28;;
25207;SDS011;13153;52.316;21.166;2023-01-15T08:05:16;7.25;;;4.30;;
25207;SDS011;13153;52.316;21.166;2023-01-15T08:07:43;8.98;;;4.47;;
25207;SDS011;13153;52.316;21.166;2023-01-15T08:10:10;6.07;;;3.90;;
25207;SDS011;13153;52.316;21.166;2023-01-15T08:12:38;7.03;;;3.90;;
25207;SDS011;13153;52.316;21.166;2023-01-15T08:15:23;7.20;;;4.15;;
25207;SDS011;13153;52.316;21.166;2023-01-15T08:17:50;7.32;;;4.32;;
25207;SDS011;13153;52.316;21.166;2023-01-15T08:20:20;5.45;;;3.83;;
25207;SDS011;13153;52.316;21.166;2023-01-15T08:22:49;10.48;;;4.22;;
25207;SDS011;13153;52.316;21.166;2023-01-15T08:25:16;8.65;;;4.13;;
25207;SDS011;13153;52.316;21.166;2023-01-15T08:27:45;8.43;;;4.30;;
25207;SDS011;13153;52.316;21.166;2023-01-15T08:30:13;8.27;;;4.47;;
25207;SDS011;13153;52.316;21.166;2023-01-15T08:32:43;7.15;;;3.83;;
25207;SDS011;13153;52.316;21.166;2023-01-15T08:35:09;8.30;;;4.13;;
25207;SDS011;13153;52.316;21.166;2023-01-15T08:37:36;6.38;;;3.72;;
25207;SDS011;13153;52.316;21.166;2023-01-15T08:40:05;8.00;;;4.50;;
25207;SDS011;13153;52.316;21.166;2023-01-15T08:42:31;7.13;;;3.88;;
25207;SDS011;13153;52.316;21.166;2023-01-15T08:44:58;8.57;;;4.28;;
25207;SDS011;13153;52.316;21.166;2023-01-15T08:47:24;7.65;;;4.13;;
25207;SDS011;13153;52.316;21.166;2023-01-15T08:49:50;6.75;;;4.10;;
25207;SDS011;13153;52.316;21.166;2023-01-15T08:52:15;7.68;;;4.43;;
25207;SDS011;13153;52.316;21.166;2023-01-15T08:54:41;7.57;;;4.32;;
25207;SDS011;13153;52.316;21.166;2023-01-15T08:57:07;9.55;;;4.40;;
25207;SDS011;13153;52.316;21.166;2023-01-15T08:59:35;11.45;;;4.38;;
25207;SDS011;13153;52.316;21.166;2023-01-15T09:02:01;8.30;;;4.43;;
25207;SDS011;13153;52.316;21.166;2023-01-15T09:04:27;7.03;;;4.35;;
25207;SDS011;13153;52.316;21.166;2023-01-15T09:06:54;9.63;;;4.88;;
25207;SDS011;13153;52.316;21.166;2023-01-15T09:09:20;8.00;;;4.47;;
25207;SDS011;13153;52.316;21.166;2023-01-15T09:11:45;8.23;;;4.63;;
25207;SDS011;13153;52.316;21.166;2023-01-15T09:14:13;9.15;;;5.15;;
25207;SDS011;13153;52.316;21.166;2023-01-15T09:16:40;9.45;;;5.30;;
25207;SDS011;13153;52.316;21.166;2023-01-15T09:19:06;10.23;;;4.50;;
25207;SDS011;13153;52.316;21.166;2023-01-15T09:21:33;10.20;;;5.57;;
25207;SDS011;13153;52.316;21.166;2023-01-15T09:23:59;11.43;;;5.88;;
25207;SDS011;13153;52.316;21.166;2023-01-15T09:26:27;12.57;;;6.10;;
25207;SDS011;13153;52.316;21.166;2023-01-15T09:29:02;9.38;;;5.43;;
25207;SDS011;13153;52.316;21.166;2023-01-15T09:31:29;9.55;;;4.97;;
25207;SDS011;13153;52.316;21.166;2023-01-15T09:33:56;9.18;;;4.60;;
25207;SDS011;13153;52.316;21.166;2023-01-15T09:38:54;13.00;;;5.30;;
25207;SDS011;13153;52.316;21.166;2023-01-15T09:41:22;12.02;;;5.88;;
25207;SDS011;13153;52.316;21.166;2023-01-15T09:47:32;8.35;;;5.43;;
25207;SDS011;13153;52.316;21.166;2023-01-15T09:50:24;11.38;;;6.20;;
25207;SDS011;13153;52.316;21.166;2023-01-15T09:56:04;12.68;;;7.63;;
25207;SDS011;13153;52.316;21.166;2023-01-15T09:58:32;12.40;;;6.45;;
25207;SDS011;13153;52.316;21.166;2023-01-15T10:01:03;11.27;;;6.50;;
25207;SDS011;13153;52.316;21.166;2023-01-15T10:06:24;41.03;;;21.90;;
25207;SDS011;13153;52.316;21.166;2023-01-15T10:09:05;37.67;;;19.58;;
25207;SDS011;13153;52.316;21.166;2023-01-15T10:11:41;22.27;;;11.35;;
25207;SDS011;13153;52.316;21.166;2023-01-15T10:17:34;41.17;;;16.38;;
25207;SDS011;13153;52.316;21.166;2023-01-15T10:31:53;28.80;;;12.60;;
25207;SDS011;13153;52.316;21.166;2023-01-15T10:37:57;18.58;;;8.68;;
25207;SDS011;13153;52.316;21.166;2023-01-15T10:40:55;23.88;;;10.18;;
25207;SDS011;13153;52.316;21.166;2023-01-15T10:46:36;15.32;;;8.50;;
25207;SDS011;13153;52.316;21.166;2023-01-15T10:49:10;13.93;;;7.32;;
25207;SDS011;13153;52.316;21.166;2023-01-15T10:54:35;13.45;;;7.18;;
25207;SDS011;13153;52.316;21.166;2023-01-15T10:57:13;11.68;;;7.00;;
25207;SDS011;13153;52.316;21.166;2023-01-15T10:59:47;13.82;;;6.88;;
25207;SDS011;13153;52.316;21.166;2023-01-15T11:05:03;14.95;;;7.15;;
25207;SDS011;13153;52.316;21.166;2023-01-15T11:07:49;15.52;;;7.38;;
25207;SDS011;13153;52.316;21.166;2023-01-15T11:10:18;14.15;;;6.95;;
25207;SDS011;13153;52.316;21.166;2023-01-15T11:15:37;15.02;;;7.45;;
25207;SDS011;13153;52.316;21.166;2023-01-15T11:18:28;13.52;;;7.60;;
25207;SDS011;13153;52.316;21.166;2023-01-15T11:21:21;15.85;;;7.53;;
25207;SDS011;13153;52.316;21.166;2023-01-15T11:23:49;15.52;;;8.75;;
25207;SDS011;13153;52.316;21.166;2023-01-15T11:26:19;15.30;;;7.53;;
25207;SDS011;13153;52.316;21.166;2023-01-15T11:28:51;14.93;;;8.13;;
25207;SDS011;13153;52.316;21.166;2023-01-15T11:31:19;17.92;;;8.05;;
25207;SDS011;13153;52.316;21.166;2023-01-15T11:33:56;15.48;;;7.90;;
25207;SDS011;13153;52.316;21.166;2023-01-15T11:36:26;17.27;;;8.52;;
25207;SDS011;13153;52.316;21.166;2023-01-15T11:38:54;16.55;;;8.20;;
25207;SDS011;13153;52.316;21.166;2023-01-15T11:44:19;20.02;;;9.10;;
25207;SDS011;13153;52.316;21.166;2023-01-15T11:47:09;17.08;;;8.43;;
25207;SDS011;13153;52.316;21.166;2023-01-15T11:49:57;15.25;;;8.35;;
25207;SDS011;13153;52.316;21.166;2023-01-15T11:52:42;16.77;;;9.02;;
25207;SDS011;13153;52.316;21.166;2023-01-15T11:55:14;17.58;;;8.63;;
25207;SDS011;13153;52.316;21.166;2023-01-15T11:57:45;16.80;;;8.55;;
25207;SDS011;13153;52.316;21.166;2023-01-15T12:00:36;14.80;;;8.52;;
25207;SDS011;13153;52.316;21.166;2023-01-15T12:03:14;18.23;;;8.90;;
25207;SDS011;13153;52.316;21.166;2023-01-15T12:08:51;17.80;;;9.02;;
25207;SDS011;13153;52.316;21.166;2023-01-15T12:17:53;17.85;;;9.45;;
25207;SDS011;13153;52.316;21.166;2023-01-15T12:23:50;18.15;;;9.88;;
25207;SDS011;13153;52.316;21.166;2023-01-15T12:26:26;21.45;;;9.85;;
25207;SDS011;13153;52.316;21.166;2023-01-15T12:29:07;21.50;;;10.50;;
25207;SDS011;13153;52.316;21.166;2023-01-15T12:31:39;22.08;;;9.90;;
25207;SDS011;13153;52.316;21.166;2023-01-15T12:34:22;17.38;;;9.80;;
25207;SDS011;13153;52.316;21.166;2023-01-15T12:37:05;19.80;;;9.77;;
25207;SDS011;13153;52.316;21.166;2023-01-15T12:39:45;19.17;;;9.88;;
25207;SDS011;13153;52.316;21.166;2023-01-15T12:42:44;18.90;;;9.90;;
25207;SDS011;13153;52.316;21.166;2023-01-15T12:45:40;19.25;;;10.30;;
25207;SDS011;13153;52.316;21.166;2023-01-15T12:51:03;21.10;;;10.05;;
25207;SDS011;13153;52.316;21.166;2023-01-15T12:53:36;18.15;;;9.75;;
25207;SDS011;13153;52.316;21.166;2023-01-15T12:59:13;20.98;;;10.98;;
25207;SDS011;13153;52.316;21.166;2023-01-15T13:04:52;20.40;;;10.25;;
25207;SDS011;13153;52.316;21.166;2023-01-15T13:07:38;18.67;;;9.30;;
25207;SDS011;13153;52.316;21.166;2023-01-15T13:10:25;17.88;;;9.57;;
25207;SDS011;13153;52.316;21.166;2023-01-15T13:12:59;18.65;;;11.27;;
25207;SDS011;13153;52.316;21.166;2023-01-15T13:15:50;19.15;;;10.32;;
25207;SDS011;13153;52.316;21.166;2023-01-15T13:21:13;20.15;;;10.90;;
25207;SDS011;13153;52.316;21.166;2023-01-15T13:32:08;23.35;;;10.82;;
25207;SDS011;13153;52.316;21.166;2023-01-15T13:40:21;18.85;;;9.82;;
25207;SDS011;13153;52.316;21.166;2023-01-15T13:43:08;18.92;;;9.85;;
25207;SDS011;13153;52.316;21.166;2023-01-15T13:46:06;19.92;;;11.13;;
25207;SDS011;13153;52.316;21.166;2023-01-15T13:48:44;21.48;;;11.40;;
25207;SDS011;13153;52.316;21.166;2023-01-15T13:51:32;24.20;;;10.35;;
25207;SDS011;13153;52.316;21.166;2023-01-15T13:54:11;19.60;;;9.90;;
25207;SDS011;13153;52.316;21.166;2023-01-15T13:56:42;19.73;;;11.05;;
25207;SDS011;13153;52.316;21.166;2023-01-15T14:05:38;19.13;;;10.23;;
25207;SDS011;13153;52.316;21.166;2023-01-15T14:08:00;16.10;;;9.57;;
25207;SDS011;13153;52.316;21.166;2023-01-15T14:10:38;18.13;;;9.77;;
25207;SDS011;13153;52.316;21.166;2023-01-15T14:16:18;19.38;;;9.82;;
25207;SDS011;13153;52.316;21.166;2023-01-15T14:19:07;17.48;;;9.93;;
25207;SDS011;13153;52.316;21.166;2023-01-15T14:36:34;19.55;;;10.55;;
25207;SDS011;13153;52.316;21.166;2023-01-15T14:39:05;19.92;;;11.18;;
25207;SDS011;13153;52.316;21.166;2023-01-15T14:42:04;24.05;;;12.07;;
25207;SDS011;13153;52.316;21.166;2023-01-15T14:44:59;27.67;;;14.45;;
25207;SDS011;13153;52.316;21.166;2023-01-15T14:47:45;32.83;;;15.20;;
25207;SDS011;13153;52.316;21.166;2023-01-15T14:50:49;23.92;;;13.32;;
25207;SDS011;13153;52.316;21.166;2023-01-15T14:53:39;24.83;;;12.02;;
25207;SDS011;13153;52.316;21.166;2023-01-15T15:06:56;31.55;;;14.77;;
25207;SDS011;13153;52.316;21.166;2023-01-15T15:09:37;26.40;;;13.45;;
25207;SDS011;13153;52.316;21.166;2023-01-15T15:15:12;20.83;;;10.80;;
25207;SDS011;13153;52.316;21.166;2023-01-15T15:20:42;26.38;;;12.98;;
25207;SDS011;13153;52.316;21.166;2023-01-15T15:24:04;28.58;;;12.90;;
25207;SDS011;13153;52.316;21.166;2023-01-15T15:26:42;33.40;;;14.40;;
25207;SDS011;13153;52.316;21.166;2023-01-15T15:32:19;26.15;;;12.82;;
25207;SDS011;13153;52.316;21.166;2023-01-15T15:34:26;26.77;;;13.45;;
25207;SDS011;13153;52.316;21.166;2023-01-15T15:37:09;24.88;;;12.40;;
25207;SDS011;13153;52.316;21.166;2023-01-15T15:39:50;23.25;;;12.18;;
25207;SDS011;13153;52.316;21.166;2023-01-15T15:45:21;28.10;;;15.57;;
25207;SDS011;13153;52.316;21.166;2023-01-15T15:48:18;38.20;;;19.33;;
25207;SDS011;13153;52.316;21.166;2023-01-15T15:51:24;58.72;;;27.40;;
25207;SDS011;13153;52.316;21.166;2023-01-15T15:59:34;30.75;;;15.73;;
25207;SDS011;13153;52.316;21.166;2023-01-15T16:02:12;30.40;;;16.15;;
25207;SDS011;13153;52.316;21.166;2023-01-15T16:04:53;34.30;;;16.42;;
25207;SDS011;13153;52.316;21.166;2023-01-15T16:07:46;36.25;;;17.50;;
25207;SDS011;13153;52.316;21.166;2023-01-15T16:12:48;33.35;;;15.55;;
25207;SDS011;13153;52.316;21.166;2023-01-15T16:15:21;38.60;;;18.38;;
25207;SDS011;13153;52.316;21.166;2023-01-15T16:17:53;40.92;;;18.00;;
25207;SDS011;13153;52.316;21.166;2023-01-15T16:20:22;38.67;;;18.67;;
25207;SDS011;13153;52.316;21.166;2023-01-15T16:22:54;36.70;;;18.23;;
25207;SDS011;13153;52.316;21.166;2023-01-15T16:25:28;34.17;;;16.92;;
25207;SDS011;13153;52.316;21.166;2023-01-15T16:30:28;34.45;;;17.23;;
25207;SDS011;13153;52.316;21.166;2023-01-15T16:33:03;35.67;;;16.58;;
25207;SDS011;13153;52.316;21.166;2023-01-15T16:35:32;44.20;;;19.63;;
25207;SDS011;13153;52.316;21.166;2023-01-15T16:38:01;47.70;;;19.92;;
25207;SDS011;13153;52.316;21.166;2023-01-15T16:40:29;45.40;;;19.85;;
25207;SDS011;13153;52.316;21.166;2023-01-15T16:43:09;37.40;;;16.50;;
25207;SDS011;13153;52.316;21.166;2023-01-15T16:48:44;34.00;;;16.75;;
25207;SDS011;13153;52.316;21.166;2023-01-15T16:54:02;27.75;;;13.07;;
25207;SDS011;13153;52.316;21.166;2023-01-15T16:58:59;23.95;;;11.95;;
25207;SDS011;13153;52.316;21.166;2023-01-15T17:01:32;22.83;;;12.02;;
25207;SDS011;13153;52.316;21.166;2023-01-15T17:07:00;18.30;;;8.90;;
25207;SDS011;13153;52.316;21.166;2023-01-15T17:09:31;17.88;;;8.65;;
25207;SDS011;13153;52.316;21.166;2023-01-15T17:12:02;17.35;;;8.82;;
25207;SDS011;13153;52.316;21.166;2023-01-15T17:17:41;17.58;;;8.32;;
25207;SDS011;13153;52.316;21.166;2023-01-15T17:20:09;16.35;;;8.52;;
25207;SDS011;13153;52.316;21.166;2023-01-15T17:22:39;14.27;;;8.48;;
25207;SDS011;13153;52.316;21.166;2023-01-15T17:27:57;18.27;;;8.77;;
25207;SDS011;13153;52.316;21.166;2023-01-15T17:30:26;15.73;;;8.88;;
25207;SDS011;13153;52.316;21.166;2023-01-15T17:33:03;19.75;;;9.00;;
25207;SDS011;13153;52.316;21.166;2023-01-15T17:35:32;18.45;;;9.25;;
25207;SDS011;13153;52.316;21.166;2023-01-15T17:38:00;15.63;;;9.50;;
25207;SDS011;13153;52.316;21.166;2023-01-15T17:40:27;15.98;;;9.10;;
25207;SDS011;13153;52.316;21.166;2023-01-15T17:42:53;23.00;;;12.18;;
25207;SDS011;13153;52.316;21.166;2023-01-15T17:47:51;21.13;;;10.18;;
25207;SDS011;13153;52.316;21.166;2023-01-15T17:50:18;19.80;;;9.63;;
25207;SDS011;13153;52.316;21.166;2023-01-15T17:52:44;20.00;;;10.65;;
25207;SDS011;13153;52.316;21.166;2023-01-15T17:55:12;23.33;;;13.52;;
25207;SDS011;13153;52.316;21.166;2023-01-15T17:58:00;28.17;;;14.23;;